»·PEaware :: N501ER KWHP-KSNA

N501ER :: KWHP-KSNA

FLIGHT INFORMATION

Flight Status: Arrived
Operator: Privately registered:
United States
More flights under this callsign
Pilot: Ahmad S. (5672)
Aircraft: CESSNA 172 SKYHAWK
(C172)
More flights by this aircraft type
Origin: KWHP Whiteman
United States
Destination: KSNA John Wayne-Orange Co
United States
More flights between these airports :: More routes between these airports
Route: WHP1 VNY V186 BAYJY V363 POXKU V8 SLI
File this flight plan on PilotEdge
Remarks:
Altitude:
(Current/Filed)
5,000ft
Speed:
(Current/Filed)
120kts
Departed: 15-Oct-23 08:44 AM
Arrived: 15-Oct-23 09:27 AM
Distance/Time
Traveled:
44nm/0:43
Distance/Time
To Go:
Arrived

Flight Plot

Page will automatically refresh every two minutes.

Flight plan parsing failed; only flown route is shown


Map Options




Map Legend


Flown Route
Filed Route
Departure Airport
Arrival Airport
Navaid (VOR, NDB)
Fix

Horizontal Profiles

Position Reports

Time Latitude Longitude Heading Altitude Ground
Speed
15-Oct-23 07:52 34.261539 -118.414097 316 1006ft 0kts
15-Oct-23 07:53 34.261539 -118.414097 316 1006ft 0kts
15-Oct-23 07:58 34.261539 -118.414097 316 1003ft 0kts
15-Oct-23 07:59 34.261539 -118.414097 316 1003ft 0kts
15-Oct-23 08:00 34.261539 -118.414097 316 1003ft 0kts
15-Oct-23 08:01 34.261539 -118.414097 316 1003ft 0kts
15-Oct-23 08:02 34.261539 -118.414097 316 1003ft 0kts
15-Oct-23 08:03 34.261539 -118.414097 316 999ft 0kts
15-Oct-23 08:04 34.261539 -118.414097 316 999ft 0kts
15-Oct-23 08:05 34.261539 -118.414097 316 999ft 0kts
15-Oct-23 08:06 34.261539 -118.414097 316 999ft 0kts
15-Oct-23 08:07 34.261539 -118.414097 316 999ft 0kts
15-Oct-23 08:08 34.261539 -118.414097 316 999ft 0kts
15-Oct-23 08:14 34.261539 -118.414097 316 981ft 0kts
15-Oct-23 08:15 34.261539 -118.414097 316 1000ft 0kts
15-Oct-23 08:16 34.261539 -118.414097 316 1000ft 0kts
15-Oct-23 08:17 34.261539 -118.414097 316 1000ft 0kts
15-Oct-23 08:18 34.261539 -118.414097 316 1000ft 0kts
15-Oct-23 08:19 34.261539 -118.414097 316 1000ft 0kts
15-Oct-23 08:21 34.261539 -118.414097 316 1000ft 0kts
15-Oct-23 08:22 34.261539 -118.414097 316 1000ft 0kts
15-Oct-23 08:23 34.261539 -118.414097 316 1006ft 0kts
15-Oct-23 08:24 34.261539 -118.414097 316 1006ft 0kts
15-Oct-23 08:25 34.261539 -118.414097 316 1006ft 0kts
15-Oct-23 08:26 34.261539 -118.414097 316 1006ft 0kts
15-Oct-23 08:27 34.261539 -118.414097 316 1006ft 0kts
15-Oct-23 08:28 34.261539 -118.414097 316 1006ft 0kts
15-Oct-23 08:29 34.261539 -118.414097 316 1006ft 0kts
15-Oct-23 08:30 34.261539 -118.414097 316 1006ft 0kts
15-Oct-23 08:31 34.261539 -118.414097 316 1006ft 0kts
15-Oct-23 08:32 34.261539 -118.414097 316 1006ft 0kts
15-Oct-23 08:33 34.261539 -118.414097 316 1006ft 0kts
15-Oct-23 08:34 34.261539 -118.414097 316 1006ft 0kts
15-Oct-23 08:35 34.261539 -118.414097 316 1006ft 0kts
15-Oct-23 08:36 34.262081 -118.414023 61 1007ft 4kts
15-Oct-23 08:37 34.260813 -118.412443 150 1005ft 4kts
15-Oct-23 08:38 34.259313 -118.412827 139 1005ft 8kts
15-Oct-23 08:39 34.257049 -118.410207 114 1003ft 8kts
15-Oct-23 08:40 34.256754 -118.409893 175 1004ft 0kts
15-Oct-23 08:41 34.256663 -118.409892 177 1003ft 4kts
15-Oct-23 08:42 34.255223 -118.409128 252 1000ft 4kts
15-Oct-23 08:43 34.257464 -118.411487 318 1003ft 52kts
15-Oct-23 08:44 34.273192 -118.431982 299 1489ft 85kts
15-Oct-23 08:46 34.273622 -118.461192 272 2158ft 87kts
15-Oct-23 08:47 34.272368 -118.491253 271 2723ft 93kts
15-Oct-23 08:48 34.280068 -118.515650 343 3369ft 82kts
15-Oct-23 08:49 34.301691 -118.525957 348 3961ft 84kts
15-Oct-23 08:50 34.324206 -118.536100 346 4568ft 88kts
15-Oct-23 08:51 34.325772 -118.557548 164 5007ft 106kts
15-Oct-23 08:52 34.298924 -118.538336 149 5015ft 110kts
15-Oct-23 08:53 34.270779 -118.520862 150 5013ft 116kts
15-Oct-23 08:54 34.241985 -118.502735 149 5012ft 116kts
15-Oct-23 08:55 34.216548 -118.479988 122 5004ft 114kts
15-Oct-23 08:56 34.208764 -118.443739 109 5001ft 113kts
15-Oct-23 08:57 34.197991 -118.407631 110 5017ft 114kts
15-Oct-23 08:58 34.187191 -118.372004 110 5008ft 112kts
15-Oct-23 08:59 34.176504 -118.336826 111 5012ft 114kts
15-Oct-23 09:00 34.165593 -118.300940 111 5010ft 114kts
15-Oct-23 09:01 34.154519 -118.264609 111 5013ft 116kts
15-Oct-23 09:02 34.143412 -118.228161 110 5009ft 115kts
15-Oct-23 09:03 34.132258 -118.191596 110 4988ft 116kts
15-Oct-23 09:04 34.121132 -118.155188 110 4996ft 115kts
15-Oct-23 09:05 34.110016 -118.118857 110 4994ft 116kts
15-Oct-23 09:06 34.098717 -118.082002 110 4997ft 117kts
15-Oct-23 09:07 34.087392 -118.045083 110 4991ft 116kts
15-Oct-23 09:08 34.076118 -118.008395 110 4993ft 117kts
15-Oct-23 09:09 34.064909 -117.971949 110 4989ft 116kts
15-Oct-23 09:09 34.055567 -117.941598 110 4989ft 115kts
15-Oct-23 09:11 34.042485 -117.899150 110 5019ft 116kts
15-Oct-23 09:12 34.031472 -117.863481 109 5018ft 113kts
15-Oct-23 09:13 34.020317 -117.827417 110 5022ft 115kts
15-Oct-23 09:14 34.008694 -117.791797 126 5021ft 114kts
15-Oct-23 09:14 33.981604 -117.785065 177 4728ft 132kts
15-Oct-23 09:15 33.943492 -117.783543 158 4158ft 138kts
15-Oct-23 09:17 33.910092 -117.754103 141 4017ft 119kts
15-Oct-23 09:18 33.880793 -117.746294 191 3944ft 125kts
15-Oct-23 09:18 33.852018 -117.757386 204 3497ft 133kts
15-Oct-23 09:19 33.819122 -117.777941 206 2981ft 130kts
15-Oct-23 09:20 33.787196 -117.798260 206 2338ft 116kts
15-Oct-23 09:21 33.762522 -117.813881 207 1819ft 93kts
15-Oct-23 09:22 33.739573 -117.828401 208 1331ft 89kts
15-Oct-23 09:23 33.718057 -117.842000 209 874ft 85kts
15-Oct-23 09:24 33.696714 -117.855515 208 412ft 87kts
15-Oct-23 09:25 33.677303 -117.867852 208 49ft 55kts
15-Oct-23 09:26 33.674284 -117.870909 299 46ft 0kts
15-Oct-23 09:27 33.674284 -117.870909 299 46ft 0kts
15-Oct-23 09:28 33.674532 -117.871082 4 46ft 6kts
15-Oct-23 09:29 33.676737 -117.870690 34 45ft 8kts
15-Oct-23 09:30 33.677133 -117.870290 124 45ft 0kts
15-Oct-23 09:31 33.677133 -117.870290 124 45ft 0kts
15-Oct-23 09:32 33.677133 -117.870290 124 45ft 0kts
15-Oct-23 09:33 33.677133 -117.870290 124 45ft 0kts
15-Oct-23 09:34 33.677133 -117.870290 124 45ft 0kts
15-Oct-23 09:35 33.677133 -117.870290 124 45ft 0kts
15-Oct-23 09:36 33.677133 -117.870290 124 45ft 0kts
15-Oct-23 09:37 33.677133 -117.870290 124 45ft 0kts
15-Oct-23 09:38 33.677133 -117.870290 124 45ft 0kts
15-Oct-23 09:39 33.677133 -117.870290 124 45ft 0kts
15-Oct-23 09:40 33.677133 -117.870290 124 45ft 0kts
15-Oct-23 09:41 33.677133 -117.870290 124 45ft 0kts

Navigation Log

Ident Type
Flight plan parsing failed, navigation log unavailable